Raymond, WA

11:04 AM PDT on July 24, 2016 (GMT -0700)
Menlo | | Change Station

Elev 10 ft 46.66 °N, 123.67 °W | Updated 59 seconds ago

Haze
Haze
77.2 °F
Feels Like 79 °F
N
2.2
Wind Variable Wind from South

Today
High -- | Low -- °F
--% Chance of Precip.
Yesterday
High -- | Low -- °F
Precip. -- in
Pressure 30.14 in
Visibility 5.0 miles
Clouds Clear
Heat Index 79 °F
Dew Point 63 °F
Humidity 62%
Rainfall 0.00 in
Snow Depth Not available.
5:46 AM 8:55 PM
Waning Gibbous, 74% visible
METAR KHQM 241753Z AUTO 20008KT 5SM HZ CLR 19/15 A3012 RMK AO2 SLP204 T01940150 10194 20106 58007
Pressure 30.14 in
Visibility 5.0 miles
Clouds Clear
Heat Index 79 °F
Dew Point 63 °F
Humidity 62%
Rainfall 0.00 in
Snow Depth Not available.
5:46 AM 8:55 PM
Waning Gibbous, 74% visible
METAR KHQM 241753Z AUTO 20008KT 5SM HZ CLR 19/15 A3012 RMK AO2 SLP204 T01940150 10194 20106 58007

10-Day Weather Forecast

Almanac

Astronomy

Jul. 24, 2016 Rise Set
Actual Time
Civil Twilight
Nautical Twilight
Astronomical Twilight
Moon
Length of Visible Light
Length of Day
Tomorrow will be .
, % of the Moon is Illuminated

Today's Extremes

State Highs State Lows

Community

WunderPhotos

Upload Photos

1,927,142 photos uploaded!

WunderBlog® & News

Nearby

Air Quality

  Air Quality AQ Index Pollutant
Not available.

Snow Depth

Station Depth Elevation

Earthquake Activity

City Distance Mag. Time & Date
Minimum magnitude displayed is 2.5.

Coastal Water Temperatures

Place Temperature

Stations

Nearby Weather Stations

Station Location Temp. Windchill Dew Point Humidity Wind Precip. Elev Updated Type
                   

Watches & Warnings

There are currently no watches in effect.